This is the latest recevied weather packets stored in our database for station/object RV1CJ-14. If no packets are shown the sender has not sent any weather packets the latest 10 day(s).
| Time | Temp. | Humidity | Pressure | Rain* | Wind** | Luminosity | Snow |
|---|---|---|---|---|---|---|---|
| 1788471003 | 13.33° C | 82% | 1003.7 hPa | 0 mm | - | 0 W/m² | - |
| 1788469203 | 13.33° C | 82% | 1003.8 hPa | 0 mm | - | 0 W/m² | - |
| 1788467403 | 13.89° C | 85% | 1004 hPa | 0 mm | - | 0 W/m² | - |
| 1788465603 | 13.89° C | 88% | 1004 hPa | 0 mm | - | 0 W/m² | - |
| 1788442203 | 17.22° C | 80% | 1004.6 hPa | 0 mm | - | 84 W/m² | - |
| 1788434403 | 16.11° C | 85% | 1005 hPa | 0 mm | - | 127 W/m² | - |
| 1788433803 | 15.56° C | 86% | 1005 hPa | 0 mm | - | 104 W/m² | - |
| 1788433203 | 15.56° C | 85% | 1005.1 hPa | 0 mm | - | 135 W/m² | - |
| 1788431403 | 17.22° C | 83% | 1005 hPa | 0 mm | - | 79 W/m² | - |
| 1788430803 | 17.22° C | 81% | 1005.1 hPa | 0 mm | - | 19 W/m² | - |
| 1788430203 | 17.22° C | 81% | 1005.1 hPa | 0 mm | - | 100 W/m² | - |
| 1788429603 | 17.22° C | 82% | 1005.3 hPa | 0 mm | - | 121 W/m² | - |
| 1788428403 | 17.78° C | 82% | 1005.2 hPa | 0 mm | - | 116 W/m² | - |
| 1788427803 | 17.78° C | 82% | 1005.2 hPa | 0 mm | - | 155 W/m² | - |
| 1788427203 | 17.22° C | 82% | 1005.2 hPa | 0 mm | - | 179 W/m² | - |
| 1788426603 | 17.22° C | 83% | 1005.3 hPa | 0 mm | - | 687 W/m² | - |
| 1788424803 | 16.67° C | 86% | 1005.4 hPa | 0 mm | - | 158 W/m² | - |
| 1788424203 | 16.11° C | 87% | 1005.5 hPa | 0 mm | - | 167 W/m² | - |
| 1788423603 | 16.11° C | 87% | 1005.6 hPa | 0 mm | - | 153 W/m² | - |
| 1788423004 | 15.56° C | 87% | 1005.6 hPa | 0 mm | - | 146 W/m² | - |
| 1788422403 | 15.56° C | 87% | 1005.5 hPa | 0 mm | - | 118 W/m² | - |
| 1788421203 | 16.11° C | 86% | 1005.6 hPa | 0 mm | - | 105 W/m² | - |
| 1788420603 | 16.11° C | 87% | 1005.6 hPa | 0 mm | - | 137 W/m² | - |
| 1788420003 | 15.56° C | 87% | 1005.6 hPa | 0 mm | - | 109 W/m² | - |
| 1788419403 | 16.11° C | 86% | 1005.5 hPa | 0 mm | - | 185 W/m² | - |
* Rain latest hour (hover to see other rain measurements)
** Current wind speed in m/s (hover to see current wind gust speed)